sensor_id;sensor_type;location;lat;lon;timestamp;P1;durP1;ratioP1;P2;durP2;ratioP2
52590;SDS011;38483;42.620;25.394;2024-02-26T00:02:29;19.27;;;13.93;;
52590;SDS011;38483;42.620;25.394;2024-02-26T00:05:49;16.87;;;12.17;;
52590;SDS011;38483;42.620;25.394;2024-02-26T00:09:10;17.70;;;12.63;;
52590;SDS011;38483;42.620;25.394;2024-02-26T00:12:31;15.33;;;11.50;;
52590;SDS011;38483;42.620;25.394;2024-02-26T00:15:51;15.20;;;11.57;;
52590;SDS011;38483;42.620;25.394;2024-02-26T00:19:12;18.27;;;12.43;;
52590;SDS011;38483;42.620;25.394;2024-02-26T00:22:33;15.90;;;11.20;;
52590;SDS011;38483;42.620;25.394;2024-02-26T00:25:54;13.60;;;10.40;;
52590;SDS011;38483;42.620;25.394;2024-02-26T00:29:14;16.47;;;11.57;;
52590;SDS011;38483;42.620;25.394;2024-02-26T00:32:35;13.67;;;10.50;;
52590;SDS011;38483;42.620;25.394;2024-02-26T00:35:56;14.50;;;10.27;;
52590;SDS011;38483;42.620;25.394;2024-02-26T00:39:16;13.87;;;10.30;;
52590;SDS011;38483;42.620;25.394;2024-02-26T00:42:37;14.70;;;9.93;;
52590;SDS011;38483;42.620;25.394;2024-02-26T00:45:58;14.30;;;10.90;;
52590;SDS011;38483;42.620;25.394;2024-02-26T00:49:18;17.47;;;10.83;;
52590;SDS011;38483;42.620;25.394;2024-02-26T00:52:39;13.63;;;10.00;;
52590;SDS011;38483;42.620;25.394;2024-02-26T00:56:00;15.10;;;9.67;;
52590;SDS011;38483;42.620;25.394;2024-02-26T00:59:20;15.07;;;9.80;;
52590;SDS011;38483;42.620;25.394;2024-02-26T01:02:41;14.20;;;9.93;;
52590;SDS011;38483;42.620;25.394;2024-02-26T01:06:01;13.63;;;9.33;;
52590;SDS011;38483;42.620;25.394;2024-02-26T01:09:22;13.90;;;9.83;;
52590;SDS011;38483;42.620;25.394;2024-02-26T01:12:43;14.40;;;10.17;;
52590;SDS011;38483;42.620;25.394;2024-02-26T01:16:04;17.77;;;11.47;;
52590;SDS011;38483;42.620;25.394;2024-02-26T01:19:24;23.70;;;13.23;;
52590;SDS011;38483;42.620;25.394;2024-02-26T01:22:45;25.03;;;14.20;;
52590;SDS011;38483;42.620;25.394;2024-02-26T01:26:06;23.47;;;14.87;;
52590;SDS011;38483;42.620;25.394;2024-02-26T01:29:26;22.87;;;14.33;;
52590;SDS011;38483;42.620;25.394;2024-02-26T01:32:47;19.37;;;13.63;;
52590;SDS011;38483;42.620;25.394;2024-02-26T01:36:08;23.63;;;15.33;;
52590;SDS011;38483;42.620;25.394;2024-02-26T01:39:28;28.97;;;17.27;;
52590;SDS011;38483;42.620;25.394;2024-02-26T01:42:50;30.30;;;16.77;;
52590;SDS011;38483;42.620;25.394;2024-02-26T01:46:11;29.23;;;16.60;;
52590;SDS011;38483;42.620;25.394;2024-02-26T01:49:31;29.70;;;17.60;;
52590;SDS011;38483;42.620;25.394;2024-02-26T01:52:52;20.07;;;13.70;;
52590;SDS011;38483;42.620;25.394;2024-02-26T01:56:12;21.90;;;14.43;;
52590;SDS011;38483;42.620;25.394;2024-02-26T01:59:33;17.53;;;12.93;;
52590;SDS011;38483;42.620;25.394;2024-02-26T02:02:54;19.63;;;12.57;;
52590;SDS011;38483;42.620;25.394;2024-02-26T02:06:14;23.60;;;12.83;;
52590;SDS011;38483;42.620;25.394;2024-02-26T02:09:35;19.50;;;13.47;;
52590;SDS011;38483;42.620;25.394;2024-02-26T02:12:56;31.00;;;21.17;;
52590;SDS011;38483;42.620;25.394;2024-02-26T02:16:16;21.43;;;14.77;;
52590;SDS011;38483;42.620;25.394;2024-02-26T02:19:37;20.37;;;14.00;;
52590;SDS011;38483;42.620;25.394;2024-02-26T02:23:02;20.10;;;12.57;;
52590;SDS011;38483;42.620;25.394;2024-02-26T02:26:26;21.07;;;12.90;;
52590;SDS011;38483;42.620;25.394;2024-02-26T02:29:47;19.63;;;13.30;;
52590;SDS011;38483;42.620;25.394;2024-02-26T02:33:08;21.30;;;15.00;;
52590;SDS011;38483;42.620;25.394;2024-02-26T02:36:28;23.43;;;15.27;;
52590;SDS011;38483;42.620;25.394;2024-02-26T02:39:49;20.67;;;14.77;;
52590;SDS011;38483;42.620;25.394;2024-02-26T02:43:10;20.73;;;14.37;;
52590;SDS011;38483;42.620;25.394;2024-02-26T02:46:31;18.47;;;13.40;;
52590;SDS011;38483;42.620;25.394;2024-02-26T02:49:51;20.37;;;13.93;;
52590;SDS011;38483;42.620;25.394;2024-02-26T02:53:12;20.57;;;14.60;;
52590;SDS011;38483;42.620;25.394;2024-02-26T02:56:33;21.83;;;14.87;;
52590;SDS011;38483;42.620;25.394;2024-02-26T02:59:53;23.90;;;15.30;;
52590;SDS011;38483;42.620;25.394;2024-02-26T03:03:14;20.20;;;14.67;;
52590;SDS011;38483;42.620;25.394;2024-02-26T03:06:35;22.70;;;15.60;;
52590;SDS011;38483;42.620;25.394;2024-02-26T03:09:56;21.53;;;15.13;;
52590;SDS011;38483;42.620;25.394;2024-02-26T03:13:17;20.80;;;14.30;;
52590;SDS011;38483;42.620;25.394;2024-02-26T03:16:37;19.90;;;14.10;;
52590;SDS011;38483;42.620;25.394;2024-02-26T03:19:58;21.17;;;13.63;;
52590;SDS011;38483;42.620;25.394;2024-02-26T03:23:19;19.23;;;13.00;;
52590;SDS011;38483;42.620;25.394;2024-02-26T03:26:39;20.90;;;13.40;;
52590;SDS011;38483;42.620;25.394;2024-02-26T03:30:00;18.67;;;12.50;;
52590;SDS011;38483;42.620;25.394;2024-02-26T03:33:21;16.77;;;12.00;;
52590;SDS011;38483;42.620;25.394;2024-02-26T03:36:41;19.43;;;12.80;;
52590;SDS011;38483;42.620;25.394;2024-02-26T03:40:02;16.70;;;11.80;;
52590;SDS011;38483;42.620;25.394;2024-02-26T03:43:23;17.30;;;13.13;;
52590;SDS011;38483;42.620;25.394;2024-02-26T03:46:43;22.20;;;13.90;;
52590;SDS011;38483;42.620;25.394;2024-02-26T03:50:04;20.37;;;13.93;;
52590;SDS011;38483;42.620;25.394;2024-02-26T03:53:25;19.77;;;12.87;;
52590;SDS011;38483;42.620;25.394;2024-02-26T03:56:45;20.33;;;13.77;;
52590;SDS011;38483;42.620;25.394;2024-02-26T04:00:06;17.47;;;12.87;;
52590;SDS011;38483;42.620;25.394;2024-02-26T04:03:28;17.23;;;12.37;;
52590;SDS011;38483;42.620;25.394;2024-02-26T04:06:48;21.77;;;14.27;;
52590;SDS011;38483;42.620;25.394;2024-02-26T04:10:09;20.80;;;13.20;;
52590;SDS011;38483;42.620;25.394;2024-02-26T04:13:30;21.20;;;14.00;;
52590;SDS011;38483;42.620;25.394;2024-02-26T04:16:52;20.73;;;14.80;;
52590;SDS011;38483;42.620;25.394;2024-02-26T04:20:14;19.67;;;13.60;;
52590;SDS011;38483;42.620;25.394;2024-02-26T04:23:33;19.23;;;13.53;;
52590;SDS011;38483;42.620;25.394;2024-02-26T04:26:54;20.37;;;13.73;;
52590;SDS011;38483;42.620;25.394;2024-02-26T04:30:15;21.10;;;13.77;;
52590;SDS011;38483;42.620;25.394;2024-02-26T04:33:35;23.20;;;14.67;;
52590;SDS011;38483;42.620;25.394;2024-02-26T04:36:56;22.30;;;13.47;;
52590;SDS011;38483;42.620;25.394;2024-02-26T04:40:17;21.50;;;13.70;;
52590;SDS011;38483;42.620;25.394;2024-02-26T04:43:37;23.47;;;15.77;;
52590;SDS011;38483;42.620;25.394;2024-02-26T04:46:58;28.13;;;14.83;;
52590;SDS011;38483;42.620;25.394;2024-02-26T04:50:19;24.83;;;15.77;;
52590;SDS011;38483;42.620;25.394;2024-02-26T04:53:39;23.13;;;15.60;;
52590;SDS011;38483;42.620;25.394;2024-02-26T04:57:00;26.03;;;16.00;;
52590;SDS011;38483;42.620;25.394;2024-02-26T05:00:21;29.03;;;16.80;;
52590;SDS011;38483;42.620;25.394;2024-02-26T05:03:42;27.90;;;16.33;;
52590;SDS011;38483;42.620;25.394;2024-02-26T05:07:02;31.60;;;17.93;;
52590;SDS011;38483;42.620;25.394;2024-02-26T05:10:23;26.33;;;16.37;;
52590;SDS011;38483;42.620;25.394;2024-02-26T05:13:44;26.20;;;17.13;;
52590;SDS011;38483;42.620;25.394;2024-02-26T05:17:05;25.47;;;16.60;;
52590;SDS011;38483;42.620;25.394;2024-02-26T05:20:25;26.53;;;16.27;;
52590;SDS011;38483;42.620;25.394;2024-02-26T05:23:46;26.30;;;17.23;;
52590;SDS011;38483;42.620;25.394;2024-02-26T05:27:07;26.73;;;16.67;;
52590;SDS011;38483;42.620;25.394;2024-02-26T05:30:28;30.03;;;18.00;;
52590;SDS011;38483;42.620;25.394;2024-02-26T05:33:30;27.17;;;17.53;;
52590;SDS011;38483;42.620;25.394;2024-02-26T05:35:58;38.23;;;24.90;;
52590;SDS011;38483;42.620;25.394;2024-02-26T05:38:30;43.50;;;28.17;;
52590;SDS011;38483;42.620;25.394;2024-02-26T05:40:58;45.00;;;26.93;;
52590;SDS011;38483;42.620;25.394;2024-02-26T05:43:26;49.63;;;29.33;;
52590;SDS011;38483;42.620;25.394;2024-02-26T05:45:53;52.53;;;30.73;;
52590;SDS011;38483;42.620;25.394;2024-02-26T05:48:21;44.27;;;25.90;;
52590;SDS011;38483;42.620;25.394;2024-02-26T05:50:48;36.47;;;23.67;;
52590;SDS011;38483;42.620;25.394;2024-02-26T05:53:15;28.97;;;20.20;;
52590;SDS011;38483;42.620;25.394;2024-02-26T05:55:42;29.57;;;19.30;;
52590;SDS011;38483;42.620;25.394;2024-02-26T05:58:09;28.33;;;18.93;;
52590;SDS011;38483;42.620;25.394;2024-02-26T06:00:36;39.63;;;23.57;;
52590;SDS011;38483;42.620;25.394;2024-02-26T06:03:03;40.87;;;22.90;;
52590;SDS011;38483;42.620;25.394;2024-02-26T06:05:31;36.77;;;22.00;;
52590;SDS011;38483;42.620;25.394;2024-02-26T06:07:58;35.13;;;21.17;;
52590;SDS011;38483;42.620;25.394;2024-02-26T06:10:25;38.17;;;22.07;;
52590;SDS011;38483;42.620;25.394;2024-02-26T06:12:52;36.43;;;22.73;;
52590;SDS011;38483;42.620;25.394;2024-02-26T06:15:19;38.43;;;23.40;;
52590;SDS011;38483;42.620;25.394;2024-02-26T06:17:46;30.83;;;20.73;;
52590;SDS011;38483;42.620;25.394;2024-02-26T06:20:13;31.90;;;19.17;;
52590;SDS011;38483;42.620;25.394;2024-02-26T06:22:41;31.77;;;18.47;;
52590;SDS011;38483;42.620;25.394;2024-02-26T06:25:08;22.10;;;16.50;;
52590;SDS011;38483;42.620;25.394;2024-02-26T06:27:35;25.63;;;17.00;;
52590;SDS011;38483;42.620;25.394;2024-02-26T06:30:02;25.73;;;18.23;;
52590;SDS011;38483;42.620;25.394;2024-02-26T06:32:30;24.10;;;16.93;;
52590;SDS011;38483;42.620;25.394;2024-02-26T06:34:57;27.20;;;17.00;;
52590;SDS011;38483;42.620;25.394;2024-02-26T06:37:24;25.87;;;17.77;;
52590;SDS011;38483;42.620;25.394;2024-02-26T06:39:52;24.73;;;17.00;;
52590;SDS011;38483;42.620;25.394;2024-02-26T06:42:19;30.33;;;19.07;;
52590;SDS011;38483;42.620;25.394;2024-02-26T06:44:46;24.07;;;17.20;;
52590;SDS011;38483;42.620;25.394;2024-02-26T06:47:13;23.73;;;16.00;;
52590;SDS011;38483;42.620;25.394;2024-02-26T06:49:40;26.43;;;15.70;;
52590;SDS011;38483;42.620;25.394;2024-02-26T06:52:07;25.07;;;15.60;;
52590;SDS011;38483;42.620;25.394;2024-02-26T06:54:34;21.93;;;15.87;;
52590;SDS011;38483;42.620;25.394;2024-02-26T06:57:01;23.97;;;17.70;;
52590;SDS011;38483;42.620;25.394;2024-02-26T06:59:28;26.43;;;17.73;;
52590;SDS011;38483;42.620;25.394;2024-02-26T07:01:55;26.77;;;15.57;;
52590;SDS011;38483;42.620;25.394;2024-02-26T07:04:22;21.63;;;14.90;;
52590;SDS011;38483;42.620;25.394;2024-02-26T07:06:49;23.03;;;15.20;;
52590;SDS011;38483;42.620;25.394;2024-02-26T07:09:17;22.17;;;14.20;;
52590;SDS011;38483;42.620;25.394;2024-02-26T07:11:44;23.30;;;15.13;;
52590;SDS011;38483;42.620;25.394;2024-02-26T07:14:12;20.30;;;14.80;;
52590;SDS011;38483;42.620;25.394;2024-02-26T07:16:39;21.80;;;15.30;;
52590;SDS011;38483;42.620;25.394;2024-02-26T07:19:06;22.37;;;14.77;;
52590;SDS011;38483;42.620;25.394;2024-02-26T07:21:33;21.83;;;14.37;;
52590;SDS011;38483;42.620;25.394;2024-02-26T07:24:00;18.47;;;12.70;;
52590;SDS011;38483;42.620;25.394;2024-02-26T07:26:29;16.97;;;12.73;;
52590;SDS011;38483;42.620;25.394;2024-02-26T07:28:57;17.27;;;11.93;;
52590;SDS011;38483;42.620;25.394;2024-02-26T07:31:24;21.10;;;12.50;;
52590;SDS011;38483;42.620;25.394;2024-02-26T07:33:51;18.93;;;12.03;;
52590;SDS011;38483;42.620;25.394;2024-02-26T07:36:19;18.10;;;12.20;;
52590;SDS011;38483;42.620;25.394;2024-02-26T07:38:46;19.07;;;12.50;;
52590;SDS011;38483;42.620;25.394;2024-02-26T07:41:15;16.43;;;11.53;;
52590;SDS011;38483;42.620;25.394;2024-02-26T07:43:43;20.13;;;12.50;;
52590;SDS011;38483;42.620;25.394;2024-02-26T07:46:13;18.93;;;12.77;;
52590;SDS011;38483;42.620;25.394;2024-02-26T07:48:40;21.43;;;14.00;;
52590;SDS011;38483;42.620;25.394;2024-02-26T07:51:08;22.70;;;14.20;;
52590;SDS011;38483;42.620;25.394;2024-02-26T07:53:38;16.37;;;12.40;;
52590;SDS011;38483;42.620;25.394;2024-02-26T07:56:05;24.07;;;15.80;;
52590;SDS011;38483;42.620;25.394;2024-02-26T07:58:33;17.37;;;12.50;;
52590;SDS011;38483;42.620;25.394;2024-02-26T08:01:00;19.63;;;14.20;;
52590;SDS011;38483;42.620;25.394;2024-02-26T08:03:27;23.67;;;15.47;;
52590;SDS011;38483;42.620;25.394;2024-02-26T08:05:55;24.67;;;15.17;;
52590;SDS011;38483;42.620;25.394;2024-02-26T08:08:22;23.27;;;15.40;;
52590;SDS011;38483;42.620;25.394;2024-02-26T08:10:49;23.33;;;16.47;;
52590;SDS011;38483;42.620;25.394;2024-02-26T08:13:16;24.30;;;16.57;;
52590;SDS011;38483;42.620;25.394;2024-02-26T08:15:43;32.23;;;16.33;;
52590;SDS011;38483;42.620;25.394;2024-02-26T08:18:10;24.67;;;15.67;;
52590;SDS011;38483;42.620;25.394;2024-02-26T08:20:37;28.13;;;17.53;;
52590;SDS011;38483;42.620;25.394;2024-02-26T08:23:05;25.70;;;16.60;;
52590;SDS011;38483;42.620;25.394;2024-02-26T08:25:32;30.17;;;16.93;;
52590;SDS011;38483;42.620;25.394;2024-02-26T08:27:59;26.40;;;15.70;;
52590;SDS011;38483;42.620;25.394;2024-02-26T08:30:26;30.37;;;16.67;;
52590;SDS011;38483;42.620;25.394;2024-02-26T08:32:53;23.97;;;16.87;;
52590;SDS011;38483;42.620;25.394;2024-02-26T08:35:21;22.70;;;16.43;;
52590;SDS011;38483;42.620;25.394;2024-02-26T08:37:48;21.37;;;15.70;;
52590;SDS011;38483;42.620;25.394;2024-02-26T08:40:15;21.73;;;14.93;;
52590;SDS011;38483;42.620;25.394;2024-02-26T08:42:43;25.87;;;16.53;;
52590;SDS011;38483;42.620;25.394;2024-02-26T08:45:10;25.03;;;16.83;;
52590;SDS011;38483;42.620;25.394;2024-02-26T08:47:39;21.90;;;15.70;;
52590;SDS011;38483;42.620;25.394;2024-02-26T08:50:06;19.40;;;15.30;;
52590;SDS011;38483;42.620;25.394;2024-02-26T08:52:33;20.80;;;15.23;;
52590;SDS011;38483;42.620;25.394;2024-02-26T08:55:00;24.63;;;14.97;;
52590;SDS011;38483;42.620;25.394;2024-02-26T08:57:29;25.43;;;16.07;;
52590;SDS011;38483;42.620;25.394;2024-02-26T08:59:56;32.67;;;15.23;;
52590;SDS011;38483;42.620;25.394;2024-02-26T09:02:23;21.27;;;13.97;;
52590;SDS011;38483;42.620;25.394;2024-02-26T09:04:50;24.37;;;14.63;;
52590;SDS011;38483;42.620;25.394;2024-02-26T09:07:20;27.73;;;13.73;;
52590;SDS011;38483;42.620;25.394;2024-02-26T09:09:48;19.70;;;12.67;;
52590;SDS011;38483;42.620;25.394;2024-02-26T09:12:15;24.73;;;14.17;;
52590;SDS011;38483;42.620;25.394;2024-02-26T09:14:43;21.60;;;13.70;;
52590;SDS011;38483;42.620;25.394;2024-02-26T09:17:10;26.97;;;14.47;;
52590;SDS011;38483;42.620;25.394;2024-02-26T09:19:37;19.67;;;14.03;;
52590;SDS011;38483;42.620;25.394;2024-02-26T09:22:05;24.03;;;14.07;;
52590;SDS011;38483;42.620;25.394;2024-02-26T09:24:32;27.83;;;15.23;;
52590;SDS011;38483;42.620;25.394;2024-02-26T09:27:00;19.77;;;14.23;;
52590;SDS011;38483;42.620;25.394;2024-02-26T09:29:27;25.60;;;14.03;;
52590;SDS011;38483;42.620;25.394;2024-02-26T09:31:54;22.03;;;14.20;;
52590;SDS011;38483;42.620;25.394;2024-02-26T09:34:21;24.33;;;14.13;;
52590;SDS011;38483;42.620;25.394;2024-02-26T09:36:49;21.30;;;15.23;;
52590;SDS011;38483;42.620;25.394;2024-02-26T09:39:16;22.90;;;14.13;;
52590;SDS011;38483;42.620;25.394;2024-02-26T09:41:48;23.83;;;13.43;;
52590;SDS011;38483;42.620;25.394;2024-02-26T09:44:20;23.13;;;14.00;;
52590;SDS011;38483;42.620;25.394;2024-02-26T09:46:50;22.53;;;14.07;;
52590;SDS011;38483;42.620;25.394;2024-02-26T09:49:19;26.70;;;14.53;;
52590;SDS011;38483;42.620;25.394;2024-02-26T09:51:49;21.57;;;13.27;;
52590;SDS011;38483;42.620;25.394;2024-02-26T09:54:17;21.03;;;12.33;;
52590;SDS011;38483;42.620;25.394;2024-02-26T09:56:44;18.77;;;12.17;;
52590;SDS011;38483;42.620;25.394;2024-02-26T09:59:29;16.53;;;11.33;;
52590;SDS011;38483;42.620;25.394;2024-02-26T10:02:13;18.90;;;11.43;;
52590;SDS011;38483;42.620;25.394;2024-02-26T10:04:41;15.20;;;10.77;;
52590;SDS011;38483;42.620;25.394;2024-02-26T10:07:15;22.03;;;11.50;;
52590;SDS011;38483;42.620;25.394;2024-02-26T10:09:42;17.67;;;10.87;;
52590;SDS011;38483;42.620;25.394;2024-02-26T10:12:10;17.80;;;11.53;;
52590;SDS011;38483;42.620;25.394;2024-02-26T10:14:42;16.47;;;10.80;;
52590;SDS011;38483;42.620;25.394;2024-02-26T10:17:09;18.53;;;10.93;;
52590;SDS011;38483;42.620;25.394;2024-02-26T10:19:37;16.47;;;9.93;;
52590;SDS011;38483;42.620;25.394;2024-02-26T10:22:05;20.30;;;9.73;;
52590;SDS011;38483;42.620;25.394;2024-02-26T10:24:32;13.87;;;9.37;;
52590;SDS011;38483;42.620;25.394;2024-02-26T10:27:02;16.33;;;7.43;;
52590;SDS011;38483;42.620;25.394;2024-02-26T10:29:29;11.50;;;7.07;;
52590;SDS011;38483;42.620;25.394;2024-02-26T10:31:56;14.03;;;6.53;;
52590;SDS011;38483;42.620;25.394;2024-02-26T10:34:23;13.13;;;7.40;;
52590;SDS011;38483;42.620;25.394;2024-02-26T10:36:51;13.17;;;6.93;;
52590;SDS011;38483;42.620;25.394;2024-02-26T10:39:20;14.80;;;8.13;;
52590;SDS011;38483;42.620;25.394;2024-02-26T10:41:49;12.50;;;8.53;;
52590;SDS011;38483;42.620;25.394;2024-02-26T10:44:17;12.00;;;9.23;;
52590;SDS011;38483;42.620;25.394;2024-02-26T10:46:48;10.00;;;7.40;;
52590;SDS011;38483;42.620;25.394;2024-02-26T10:49:17;11.23;;;7.07;;
52590;SDS011;38483;42.620;25.394;2024-02-26T10:51:55;11.90;;;6.40;;
52590;SDS011;38483;42.620;25.394;2024-02-26T10:54:25;8.93;;;6.50;;
52590;SDS011;38483;42.620;25.394;2024-02-26T10:56:55;9.00;;;6.27;;
52590;SDS011;38483;42.620;25.394;2024-02-26T10:59:24;15.27;;;7.20;;
52590;SDS011;38483;42.620;25.394;2024-02-26T11:01:52;10.00;;;4.90;;
52590;SDS011;38483;42.620;25.394;2024-02-26T11:04:22;6.90;;;4.60;;
52590;SDS011;38483;42.620;25.394;2024-02-26T11:06:51;11.60;;;5.37;;
52590;SDS011;38483;42.620;25.394;2024-02-26T11:09:22;10.90;;;5.13;;
52590;SDS011;38483;42.620;25.394;2024-02-26T11:11:50;17.77;;;6.17;;
52590;SDS011;38483;42.620;25.394;2024-02-26T11:14:22;8.93;;;4.97;;
52590;SDS011;38483;42.620;25.394;2024-02-26T11:16:54;11.53;;;6.00;;
52590;SDS011;38483;42.620;25.394;2024-02-26T11:19:22;15.23;;;6.47;;
52590;SDS011;38483;42.620;25.394;2024-02-26T11:21:52;11.40;;;6.10;;
52590;SDS011;38483;42.620;25.394;2024-02-26T11:24:19;10.90;;;5.10;;
52590;SDS011;38483;42.620;25.394;2024-02-26T11:27:45;13.17;;;5.50;;
52590;SDS011;38483;42.620;25.394;2024-02-26T11:31:05;6.53;;;4.40;;
52590;SDS011;38483;42.620;25.394;2024-02-26T11:34:26;7.73;;;4.70;;
52590;SDS011;38483;42.620;25.394;2024-02-26T11:37:54;12.47;;;6.30;;
52590;SDS011;38483;42.620;25.394;2024-02-26T11:41:11;9.33;;;5.00;;
52590;SDS011;38483;42.620;25.394;2024-02-26T11:44:32;9.50;;;5.60;;
52590;SDS011;38483;42.620;25.394;2024-02-26T11:46:59;11.43;;;5.67;;
52590;SDS011;38483;42.620;25.394;2024-02-26T11:49:36;13.10;;;6.90;;
52590;SDS011;38483;42.620;25.394;2024-02-26T11:52:08;14.57;;;6.43;;
52590;SDS011;38483;42.620;25.394;2024-02-26T11:54:37;16.70;;;6.63;;
52590;SDS011;38483;42.620;25.394;2024-02-26T11:59:56;17.57;;;8.00;;
52590;SDS011;38483;42.620;25.394;2024-02-26T12:02:47;14.37;;;9.63;;
52590;SDS011;38483;42.620;25.394;2024-02-26T12:05:19;21.07;;;10.17;;
52590;SDS011;38483;42.620;25.394;2024-02-26T12:08:03;12.93;;;6.47;;
52590;SDS011;38483;42.620;25.394;2024-02-26T12:10:36;7.60;;;5.10;;
52590;SDS011;38483;42.620;25.394;2024-02-26T12:13:12;7.47;;;4.83;;
52590;SDS011;38483;42.620;25.394;2024-02-26T12:15:56;17.80;;;6.17;;
52590;SDS011;38483;42.620;25.394;2024-02-26T12:18:25;6.80;;;4.80;;
52590;SDS011;38483;42.620;25.394;2024-02-26T12:20:58;5.53;;;4.83;;
52590;SDS011;38483;42.620;25.394;2024-02-26T12:23:30;12.17;;;5.33;;
52590;SDS011;38483;42.620;25.394;2024-02-26T12:26:00;8.43;;;4.67;;
52590;SDS011;38483;42.620;25.394;2024-02-26T12:28:33;8.07;;;4.17;;
52590;SDS011;38483;42.620;25.394;2024-02-26T12:31:00;7.40;;;4.00;;
52590;SDS011;38483;42.620;25.394;2024-02-26T12:33:28;5.13;;;3.67;;
52590;SDS011;38483;42.620;25.394;2024-02-26T12:35:58;4.73;;;3.73;;
52590;SDS011;38483;42.620;25.394;2024-02-26T12:38:26;6.77;;;4.37;;
52590;SDS011;38483;42.620;25.394;2024-02-26T12:40:54;7.23;;;4.53;;
52590;SDS011;38483;42.620;25.394;2024-02-26T12:43:21;10.27;;;5.13;;
52590;SDS011;38483;42.620;25.394;2024-02-26T12:45:48;15.80;;;5.30;;
52590;SDS011;38483;42.620;25.394;2024-02-26T12:48:15;14.17;;;6.07;;
52590;SDS011;38483;42.620;25.394;2024-02-26T12:50:46;7.67;;;4.80;;
52590;SDS011;38483;42.620;25.394;2024-02-26T12:53:16;11.60;;;5.37;;
52590;SDS011;38483;42.620;25.394;2024-02-26T12:55:44;9.83;;;5.40;;
52590;SDS011;38483;42.620;25.394;2024-02-26T12:58:11;7.63;;;5.17;;
52590;SDS011;38483;42.620;25.394;2024-02-26T13:00:39;7.80;;;4.97;;
52590;SDS011;38483;42.620;25.394;2024-02-26T13:03:07;12.17;;;7.13;;
52590;SDS011;38483;42.620;25.394;2024-02-26T13:05:36;10.20;;;6.30;;
52590;SDS011;38483;42.620;25.394;2024-02-26T13:08:03;14.17;;;7.73;;
52590;SDS011;38483;42.620;25.394;2024-02-26T13:10:35;13.07;;;7.53;;
52590;SDS011;38483;42.620;25.394;2024-02-26T13:13:02;11.90;;;7.37;;
52590;SDS011;38483;42.620;25.394;2024-02-26T13:15:30;9.47;;;6.60;;
52590;SDS011;38483;42.620;25.394;2024-02-26T13:17:59;9.33;;;6.70;;
52590;SDS011;38483;42.620;25.394;2024-02-26T13:20:39;8.63;;;6.20;;
52590;SDS011;38483;42.620;25.394;2024-02-26T13:23:12;10.13;;;6.50;;
52590;SDS011;38483;42.620;25.394;2024-02-26T13:25:40;8.97;;;6.23;;
52590;SDS011;38483;42.620;25.394;2024-02-26T13:28:18;12.87;;;5.77;;
52590;SDS011;38483;42.620;25.394;2024-02-26T13:30:52;7.10;;;5.23;;
52590;SDS011;38483;42.620;25.394;2024-02-26T13:33:23;11.20;;;6.17;;
52590;SDS011;38483;42.620;25.394;2024-02-26T13:35:51;6.77;;;4.93;;
52590;SDS011;38483;42.620;25.394;2024-02-26T13:38:20;11.33;;;5.97;;
52590;SDS011;38483;42.620;25.394;2024-02-26T13:40:47;10.10;;;7.80;;
52590;SDS011;38483;42.620;25.394;2024-02-26T13:43:14;9.07;;;6.30;;
52590;SDS011;38483;42.620;25.394;2024-02-26T13:45:41;10.70;;;5.00;;
52590;SDS011;38483;42.620;25.394;2024-02-26T13:48:09;8.23;;;5.03;;
52590;SDS011;38483;42.620;25.394;2024-02-26T13:50:39;8.03;;;4.70;;
52590;SDS011;38483;42.620;25.394;2024-02-26T13:53:06;9.73;;;5.63;;
52590;SDS011;38483;42.620;25.394;2024-02-26T13:55:34;9.57;;;5.17;;
52590;SDS011;38483;42.620;25.394;2024-02-26T13:58:00;8.93;;;5.13;;
52590;SDS011;38483;42.620;25.394;2024-02-26T14:00:29;7.37;;;4.90;;
52590;SDS011;38483;42.620;25.394;2024-02-26T14:02:59;9.57;;;5.10;;
52590;SDS011;38483;42.620;25.394;2024-02-26T14:05:27;11.20;;;5.10;;
52590;SDS011;38483;42.620;25.394;2024-02-26T14:07:55;9.20;;;5.70;;
52590;SDS011;38483;42.620;25.394;2024-02-26T14:10:22;10.30;;;5.13;;
52590;SDS011;38483;42.620;25.394;2024-02-26T14:12:49;11.13;;;4.73;;
52590;SDS011;38483;42.620;25.394;2024-02-26T14:15:16;11.63;;;7.67;;
52590;SDS011;38483;42.620;25.394;2024-02-26T14:17:43;12.30;;;6.03;;
52590;SDS011;38483;42.620;25.394;2024-02-26T14:20:10;7.77;;;5.40;;
52590;SDS011;38483;42.620;25.394;2024-02-26T14:22:38;12.83;;;5.70;;
52590;SDS011;38483;42.620;25.394;2024-02-26T14:25:05;8.17;;;5.40;;
52590;SDS011;38483;42.620;25.394;2024-02-26T14:27:32;9.23;;;6.53;;
52590;SDS011;38483;42.620;25.394;2024-02-26T14:29:59;10.33;;;5.80;;
52590;SDS011;38483;42.620;25.394;2024-02-26T14:32:27;11.73;;;6.47;;
52590;SDS011;38483;42.620;25.394;2024-02-26T14:34:55;12.07;;;7.50;;
52590;SDS011;38483;42.620;25.394;2024-02-26T14:37:23;16.37;;;7.83;;
52590;SDS011;38483;42.620;25.394;2024-02-26T14:39:50;13.40;;;8.30;;
52590;SDS011;38483;42.620;25.394;2024-02-26T14:43:10;13.47;;;7.80;;
52590;SDS011;38483;42.620;25.394;2024-02-26T14:46:31;9.40;;;7.03;;
52590;SDS011;38483;42.620;25.394;2024-02-26T14:49:52;12.83;;;7.13;;
52590;SDS011;38483;42.620;25.394;2024-02-26T14:53:13;12.80;;;7.10;;
52590;SDS011;38483;42.620;25.394;2024-02-26T14:56:33;11.10;;;7.73;;
52590;SDS011;38483;42.620;25.394;2024-02-26T14:59:54;11.47;;;7.33;;
52590;SDS011;38483;42.620;25.394;2024-02-26T15:03:15;17.27;;;10.00;;
52590;SDS011;38483;42.620;25.394;2024-02-26T15:06:38;19.53;;;9.33;;
52590;SDS011;38483;42.620;25.394;2024-02-26T15:10:00;13.90;;;8.20;;
52590;SDS011;38483;42.620;25.394;2024-02-26T15:13:27;8.37;;;4.53;;
52590;SDS011;38483;42.620;25.394;2024-02-26T15:16:48;12.10;;;6.83;;
52590;SDS011;38483;42.620;25.394;2024-02-26T15:19:55;8.80;;;6.40;;
52590;SDS011;38483;42.620;25.394;2024-02-26T15:22:24;11.30;;;5.70;;
52590;SDS011;38483;42.620;25.394;2024-02-26T15:24:51;12.10;;;6.80;;
52590;SDS011;38483;42.620;25.394;2024-02-26T15:27:18;10.60;;;7.60;;
52590;SDS011;38483;42.620;25.394;2024-02-26T15:29:45;17.93;;;7.87;;
52590;SDS011;38483;42.620;25.394;2024-02-26T15:32:12;12.60;;;7.07;;
52590;SDS011;38483;42.620;25.394;2024-02-26T15:34:40;16.40;;;7.50;;
52590;SDS011;38483;42.620;25.394;2024-02-26T15:37:07;16.93;;;8.67;;
52590;SDS011;38483;42.620;25.394;2024-02-26T15:39:38;12.17;;;8.53;;
52590;SDS011;38483;42.620;25.394;2024-02-26T15:42:05;13.77;;;9.73;;
52590;SDS011;38483;42.620;25.394;2024-02-26T15:44:32;18.77;;;10.70;;
52590;SDS011;38483;42.620;25.394;2024-02-26T15:46:59;18.67;;;13.20;;
52590;SDS011;38483;42.620;25.394;2024-02-26T15:49:26;18.13;;;12.83;;
52590;SDS011;38483;42.620;25.394;2024-02-26T15:51:53;21.37;;;13.77;;
52590;SDS011;38483;42.620;25.394;2024-02-26T15:54:20;19.03;;;12.93;;
52590;SDS011;38483;42.620;25.394;2024-02-26T15:56:47;21.73;;;12.40;;
52590;SDS011;38483;42.620;25.394;2024-02-26T15:59:16;26.63;;;14.30;;
52590;SDS011;38483;42.620;25.394;2024-02-26T16:01:44;12.97;;;9.00;;
52590;SDS011;38483;42.620;25.394;2024-02-26T16:04:11;18.57;;;8.93;;
52590;SDS011;38483;42.620;25.394;2024-02-26T16:06:48;19.63;;;8.67;;
52590;SDS011;38483;42.620;25.394;2024-02-26T16:09:20;15.80;;;8.17;;